Data/ora PM10 PM2.5 Temperatura Umidità Pressione Campioni Min ciclo Max ciclo Segnale Wifi
                                       
21/02/2024 16:55:14 5.80 2.63 15.71 62.66 1011.75 5117076 27 20051 -65
21/02/2024 16:52:48 5.30 2.50 15.70 61.95 1011.68 5116478 27 20063 -67
21/02/2024 16:50:22 6.50 2.28 15.75 61.75 1011.67 5116230 27 20047 -66
21/02/2024 16:47:57 6.80 2.70 15.77 61.00 1011.73 5117222 27 20067 -68
21/02/2024 16:45:31 7.22 2.55 15.77 61.56 1011.70 5117098 27 20043 -66
21/02/2024 16:43:06 6.63 2.63 15.86 60.98 1011.80 5117502 27 20043 -68
21/02/2024 16:40:40 8.32 2.70 15.74 60.72 1011.48 5117042 27 20491 -69
21/02/2024 16:38:14 6.00 2.40 15.92 60.34 1011.82 5116991 27 20125 -69
21/02/2024 16:35:48 9.68 2.53 15.94 59.93 1011.80 5116832 27 20048 -68
21/02/2024 16:33:23 6.65 2.80 15.80 59.18 1011.37 5115948 27 20054 -70
21/02/2024 16:30:57 7.88 2.90 15.95 58.94 1011.63 5115756 27 20040 -67
21/02/2024 16:28:30 7.20 2.33 16.08 58.02 1011.74 5115931 27 20058 -66
21/02/2024 16:26:05 5.97 2.25 16.07 58.00 1011.65 5117928 27 20646 -68
21/02/2024 16:23:39 7.80 2.40 16.05 57.38 1011.64 5116441 27 20073 -66
21/02/2024 16:21:13 6.32 2.50 16.08 56.58 1011.82 5116989 27 20044 -68
21/02/2024 16:18:42 7.47 2.35 16.17 55.92 1011.73 5118252 27 20062 -67
21/02/2024 16:16:16 7.05 2.00 16.18 55.34 1011.56 5115619 27 20047 -66
21/02/2024 16:13:49 5.65 1.90 16.28 54.07 1011.57 5116375 27 20070 -69
21/02/2024 16:11:23 5.93 1.90 16.19 53.11 1011.45 5117747 27 20043 -69
21/02/2024 16:08:58 5.60 1.85 16.26 52.60 1011.48 5118937 27 20051 -68
21/02/2024 16:06:31 6.55 1.77 16.41 51.83 1011.82 5118847 27 20067 -65
21/02/2024 16:04:05 5.85 1.95 16.37 51.83 1011.64 5114905 27 20472 -67
21/02/2024 16:01:39 5.03 1.70 16.40 51.08 1011.70 5113070 28 20047 -68
21/02/2024 15:59:13 6.65 1.75 16.30 49.60 1011.52 5112490 28 20048 -67
21/02/2024 15:56:47 4.60 1.50 16.27 49.06 1011.52 5113770 28 20529 -66
21/02/2024 15:54:21 5.07 1.63 16.22 49.13 1011.55 5114233 28 20084 -67
21/02/2024 15:51:55 5.15 2.15 16.26 49.10 1011.67 5114847 28 20154 -69
21/02/2024 15:49:29 4.85 1.50 16.35 48.77 1011.71 5113980 28 20052 -69
21/02/2024 15:47:03 4.75 1.65 16.49 47.52 1011.79 5114700 28 20043 -67
21/02/2024 15:44:37 6.43 1.65 16.40 45.66 1011.49 5114440 28 20435 -67
21/02/2024 15:42:09 5.05 1.40 16.44 42.51 1011.45 5114381 28 20081 -64
21/02/2024 15:39:41 6.80 1.40 16.70 41.17 1011.69 5111434 28 20466 -67
21/02/2024 15:37:15 3.40 1.05 16.76 40.58 1011.63 5113247 28 20589 -66
21/02/2024 15:34:49 3.58 1.10 16.54 40.54 1011.32 5112813 28 20051 -68
21/02/2024 15:32:23 3.35 1.20 16.69 40.20 1011.49 5113506 28 20381 -67
21/02/2024 15:29:57 4.93 1.13 16.67 39.89 1011.45 5113086 28 20047 -65
21/02/2024 15:27:32 5.50 1.23 16.73 39.69 1011.50 5113745 28 20051 -67
21/02/2024 15:25:05 4.20 1.20 16.91 40.23 1011.74 5115330 28 20126 -68
21/02/2024 15:22:37 4.55 1.50 16.83 41.54 1011.51 5115378 28 20054 -67
21/02/2024 15:20:09 5.93 1.60 16.81 42.32 1011.42 5114280 28 20047 -67
21/02/2024 15:17:43 5.97 1.88 16.81 43.24 1011.58 5114596 28 20051 -66
21/02/2024 15:15:16 6.70 1.60 16.80 43.94 1011.57 5113491 27 20558 -65
21/02/2024 15:12:50 4.60 1.50 16.98 43.73 1011.81 5114727 27 20182 -69
21/02/2024 15:10:24 5.70 1.50 16.87 45.62 1011.74 5114078 27 20051 -66
21/02/2024 15:07:58 8.10 1.85 16.91 46.19 1011.86 5112509 27 20051 -68
21/02/2024 15:05:32 5.43 1.70 16.84 45.62 1011.77 5114042 27 20051 -65
21/02/2024 15:03:07 6.90 1.90 16.89 45.67 1011.80 5115385 27 20086 -68
21/02/2024 15:00:41 4.40 1.52 16.72 46.24 1011.53 5113930 27 20070 -68
21/02/2024 14:58:16 6.38 1.65 16.72 46.93 1011.67 5116440 27 20103 -65
21/02/2024 14:55:49 5.47 1.90 16.83 46.51 1011.88 5116600 27 20122 -67
21/02/2024 14:53:22 6.65 1.70 16.82 46.21 1011.94 5113918 27 20082 -67
21/02/2024 14:50:56 5.20 1.70 16.70 45.99 1011.61 5114970 27 20569 -64
21/02/2024 14:48:30 9.02 1.75 16.80 45.76 1011.75 5115339 27 20210 -67
21/02/2024 14:46:01 8.15 2.05 16.88 45.82 1011.64 5114248 27 20043 -68
21/02/2024 14:43:32 7.78 1.90 17.03 46.79 1012.00 5114589 27 20088 -68
21/02/2024 14:41:06 4.95 1.80 17.09 47.33 1012.00 5113680 27 20560 -68
21/02/2024 14:38:38 7.00 1.80 17.00 46.40 1011.72 5114900 27 20051 -66
21/02/2024 14:36:11 6.00 1.65 17.24 46.24 1012.07 5114633 27 20050 -67
21/02/2024 14:33:45 4.18 1.58 17.25 45.85 1012.05 5114230 27 20076 -66
21/02/2024 14:31:19 5.90 2.15 17.19 45.63 1011.89 5112885 27 20543 -67
21/02/2024 14:28:53 4.75 1.55 17.22 45.86 1011.77 5116258 27 20048 -68
21/02/2024 14:26:28 5.15 1.65 17.26 45.75 1012.01 5114051 27 20043 -67
21/02/2024 14:24:00 5.85 1.88 17.12 45.67 1012.10 5114751 27 20181 -66
21/02/2024 14:21:34 5.30 1.80 16.93 46.10 1011.87 5114579 27 20044 -65
21/02/2024 14:19:08 5.85 1.98 16.88 46.54 1011.99 5114680 27 20505 -66
21/02/2024 14:16:41 5.45 2.03 17.01 46.29 1012.21 5110885 27 20054 -68
21/02/2024 14:14:13 6.78 1.90 16.93 46.29 1011.84 5111531 27 20104 -66
21/02/2024 14:11:47 5.82 2.00 17.18 45.33 1012.21 5114141 27 20051 -68
21/02/2024 14:09:21 6.22 1.88 17.23 44.73 1012.10 5113873 27 20054 -67
21/02/2024 14:06:55 5.68 1.80 17.28 43.34 1012.18 5111579 27 20053 -67
21/02/2024 14:04:30 3.95 1.40 17.15 43.89 1011.88 5113999 27 20062 -66
21/02/2024 14:02:04 3.65 1.38 17.18 42.41 1012.06 5112479 27 20054 -66
21/02/2024 13:59:38 4.53 1.40 17.32 43.26 1012.14 5114056 27 20047 -67
21/02/2024 13:57:13 4.90 1.67 17.20 42.06 1011.91 5115983 27 20052 -68
21/02/2024 13:54:47 5.10 1.58 17.46 41.47 1012.26 5116029 27 20046 -68
21/02/2024 13:52:21 4.32 1.48 17.46 41.70 1012.13 5116334 27 20047 -69
21/02/2024 13:49:56 4.72 1.65 17.59 41.04 1012.23 5116489 27 20044 -67
21/02/2024 13:47:29 4.68 1.40 17.54 40.64 1011.98 5116746 27 20481 -67
21/02/2024 13:45:04 4.22 1.48 17.63 41.25 1012.15 5117564 27 20047 -66
21/02/2024 13:42:36 3.75 1.23 17.57 41.53 1012.24 5115710 27 20043 -68
21/02/2024 13:40:07 4.47 1.48 17.44 41.11 1012.15 5116655 27 20040 -68
21/02/2024 13:37:40 3.97 1.33 17.46 40.91 1012.34 5115987 27 20105 -71
21/02/2024 13:35:14 4.88 1.35 17.43 40.13 1012.38 5117294 27 20039 -67
21/02/2024 13:32:48 4.32 1.30 17.45 40.44 1012.39 5116322 27 20047 -67
21/02/2024 13:30:20 4.82 1.48 17.35 41.58 1012.21 5117462 27 20148 -69
21/02/2024 13:27:54 5.07 1.35 17.20 41.72 1012.07 5116997 27 20152 -65
21/02/2024 13:25:28 4.35 1.23 17.32 42.18 1012.55 5116967 27 20066 -68
21/02/2024 13:22:54 6.47 1.67 17.33 41.94 1012.53 5118011 27 20074 -67
21/02/2024 13:20:27 3.35 1.20 17.31 40.82 1012.37 5116899 27 20069 -68
21/02/2024 13:18:02 3.30 1.17 17.45 41.40 1012.54 5116630 27 20043 -66
21/02/2024 13:15:36 5.85 1.38 17.40 42.65 1012.44 5117705 27 20046 -69
21/02/2024 13:13:10 3.20 1.20 17.52 42.63 1012.65 5116877 27 20096 -66
21/02/2024 13:10:38 6.13 1.40 17.32 43.48 1012.41 5115819 27 20051 -65
21/02/2024 13:08:12 5.38 1.35 17.30 41.86 1012.45 5116789 27 20443 -66
21/02/2024 13:05:46 6.68 1.52 17.46 43.34 1012.65 5116681 27 20547 -66
21/02/2024 13:03:20 5.53 1.52 17.40 42.22 1012.57 5117617 27 20051 -70
21/02/2024 13:00:55 4.28 1.20 17.61 41.96 1012.88 5118074 27 20050 -67
21/02/2024 12:58:29 4.03 1.35 17.65 41.52 1012.88 5118029 27 20544 -67
21/02/2024 12:56:02 4.28 1.23 17.59 42.01 1012.90 5117549 27 20092 -68
21/02/2024 12:53:37 5.07 1.50 17.39 42.68 1012.81 5116160 27 20101 -66
21/02/2024 12:51:10 3.90 1.42 17.39 43.54 1012.92 5116033 27 20043 -66
21/02/2024 12:48:44 6.32 1.48 17.34 43.36 1012.84 5118400 27 20082 -66
21/02/2024 12:46:14 5.38 1.75 17.57 41.91 1013.01 5117386 27 20067 -65
21/02/2024 12:43:49 5.97 1.60 17.42 39.93 1012.58 5117707 27 20096 -66
21/02/2024 12:41:21 7.43 1.80 17.82 40.28 1012.96 5118240 27 20051 -66
21/02/2024 12:38:55 4.30 1.60 17.92 39.52 1012.88 5118021 27 20043 -66
21/02/2024 12:36:26 5.78 1.50 18.01 39.33 1012.77 5117711 27 20051 -66
21/02/2024 12:33:53 8.35 1.77 18.43 39.02 1013.12 5117506 27 20051 -65
21/02/2024 12:31:27 5.15 1.85 18.63 38.50 1013.00 5115104 27 20048 -66
21/02/2024 12:28:59 7.18 2.00 18.64 37.14 1012.75 5114756 28 20656 -66
21/02/2024 12:26:22 6.00 1.90 18.76 34.76 1012.85 5113606 28 21411 -67
21/02/2024 12:23:39 5.50 1.85 18.83 34.56 1012.86 5113876 28 20047 -66
21/02/2024 12:21:13 6.20 1.75 18.81 33.61 1012.96 5114326 28 20564 -65
21/02/2024 12:18:48 5.75 1.88 18.76 34.42 1012.93 5114066 28 20959 -66
21/02/2024 12:16:22 5.30 2.10 18.76 34.48 1013.15 5115296 28 20097 -64
21/02/2024 12:13:34 7.40 1.83 18.58 34.33 1012.98 5116186 28 20047 -66
21/02/2024 12:11:05 7.40 1.83 18.69 34.38 1013.33 5114367 28 20052 -67
21/02/2024 12:08:39 5.30 1.70 18.54 35.30 1013.35 5114711 28 20054 -67
21/02/2024 12:06:14 5.40 1.80 18.49 35.37 1013.39 5113946 28 20501 -66
21/02/2024 12:03:47 5.93 1.75 18.48 35.18 1013.31 5114119 28 20047 -66
21/02/2024 12:01:19 4.85 1.70 18.36 35.81 1013.11 5114494 28 20108 -66
21/02/2024 11:58:53 4.80 1.60 18.24 35.95 1013.23 5115098 28 20116 -67
21/02/2024 11:56:26 5.68 1.60 18.38 35.12 1013.46 5114653 28 20044 -66
21/02/2024 11:53:40 5.68 1.77 18.69 34.08 1013.43 5114192 28 20050 -66
21/02/2024 11:51:12 6.63 2.00 18.81 35.73 1013.44 5115053 28 20489 -66
21/02/2024 11:48:25 5.20 1.90 18.68 35.60 1013.44 5115250 28 20051 -66
21/02/2024 11:45:35 4.90 1.88 18.52 35.81 1013.37 5111111 28 20065 -67
21/02/2024 11:43:00 5.10 2.17 18.48 36.05 1013.49 5114966 28 20062 -66
21/02/2024 11:40:29 5.00 1.80 18.35 36.06 1013.25 5114455 28 20043 -67
21/02/2024 11:37:57 5.05 1.75 18.38 35.70 1013.26 5113299 28 20052 -66
21/02/2024 11:35:31 5.10 1.75 18.78 34.00 1013.39 5114963 28 20047 -66
21/02/2024 11:32:54 5.70 2.25 19.15 34.92 1013.46 5116355 28 20055 -66
21/02/2024 11:30:25 9.18 2.33 19.39 36.12 1013.47 5113879 28 20051 -67
21/02/2024 11:28:00 5.10 2.10 19.45 35.33 1013.47 5116395 28 20857 -67
21/02/2024 11:25:34 7.20 2.03 19.42 35.73 1013.49 5114223 28 20086 -65
21/02/2024 11:23:07 4.68 1.70 19.26 35.23 1013.45 5115537 28 20105 -67
21/02/2024 11:20:25 6.57 2.05 18.95 35.40 1013.19 5114604 28 20047 -66
21/02/2024 11:17:59 5.15 1.70 19.15 33.92 1013.35 5115060 28 20058 -67
21/02/2024 11:15:23 5.55 1.52 19.18 34.65 1013.20 5111256 28 20469 -67
21/02/2024 11:12:49 4.47 1.77 19.29 35.56 1013.45 5116583 27 20063 -66
21/02/2024 11:10:16 4.45 1.60 18.81 36.22 1013.28 5114515 27 20039 -67
21/02/2024 11:07:48 7.45 1.88 18.61 37.50 1013.43 5114063 27 20046 -66
21/02/2024 11:05:21 5.00 2.05 18.50 38.64 1013.53 5115118 27 20130 -66
21/02/2024 11:02:56 8.43 2.65 18.39 38.67 1013.56 5115901 27 20137 -67
21/02/2024 11:00:30 8.07 2.95 18.15 40.97 1013.51 5116424 27 20066 -67
21/02/2024 10:58:03 6.93 2.92 17.81 41.89 1013.52 5115333 27 20418 -67
21/02/2024 10:55:35 7.75 2.67 17.44 41.37 1013.22 5115145 27 20096 -67
21/02/2024 10:53:06 5.90 2.75 17.77 39.35 1013.13 5115848 27 20047 -67
21/02/2024 10:50:40 10.95 3.47 18.15 41.00 1013.40 5115232 27 20100 -67
21/02/2024 10:48:11 7.78 3.63 17.96 41.87 1013.34 5115078 27 20073 -67
21/02/2024 10:45:23 8.20 3.47 17.64 42.64 1013.26 5114878 27 20260 -67
21/02/2024 10:42:44 7.70 3.17 17.68 41.83 1013.55 5116209 27 20054 -66
21/02/2024 10:40:17 8.75 3.33 17.26 42.99 1013.22 5116111 27 20157 -67
21/02/2024 10:37:49 12.27 2.90 17.09 43.82 1013.60 5114899 27 20470 -67
21/02/2024 10:35:22 8.27 3.33 16.57 45.03 1013.39 5116810 27 20499 -67
21/02/2024 10:32:54 9.40 3.30 16.35 44.03 1013.25 5115391 27 20051 -65
21/02/2024 10:30:28 7.68 2.95 16.56 43.68 1013.56 5116953 27 20051 -68
21/02/2024 10:28:03 9.05 3.65 16.37 46.57 1013.34 5115455 27 20090 -67
21/02/2024 10:25:37 9.88 3.80 16.09 47.17 1013.40 5117065 27 20047 -66
21/02/2024 10:23:11 7.55 3.80 15.80 47.01 1013.34 5116979 27 20129 -67
21/02/2024 10:20:45 11.57 3.95 15.75 46.95 1013.55 5115732 27 20039 -66
21/02/2024 10:18:18 7.32 3.45 15.60 46.33 1013.55 5098467 27 20051 -66
21/02/2024 10:15:53 12.48 4.20 15.92 46.56 1013.60 5116850 27 20051 -67
21/02/2024 10:13:27 9.80 4.03 16.05 47.40 1013.56 5116357 27 20040 -66
21/02/2024 10:11:01 8.57 4.43 16.04 47.67 1013.53 5116150 27 20035 -66
21/02/2024 10:08:35 8.43 4.15 15.88 47.14 1013.51 5116461 27 20039 -66
21/02/2024 10:06:09 14.13 4.57 15.59 47.50 1013.18 5115589 27 20815 -66
21/02/2024 10:03:39 13.68 4.80 15.66 48.13 1013.25 5116502 27 20052 -66
21/02/2024 10:01:10 10.93 4.97 15.71 48.12 1013.46 5116544 27 20559 -67
21/02/2024 09:58:40 15.55 5.45 15.69 47.33 1013.39 5116104 27 20046 -66
21/02/2024 09:56:10 13.38 5.43 15.78 47.61 1013.36 5117084 27 20043 -67
21/02/2024 09:53:44 15.95 6.50 15.56 48.20 1013.43 5116966 27 20466 -67
21/02/2024 09:51:18 13.15 6.15 15.22 48.35 1013.04 5116644 27 20044 -65
21/02/2024 09:48:52 12.70 5.47 15.13 48.71 1013.36 5117979 27 20044 -67
21/02/2024 09:46:26 12.93 5.35 14.73 50.08 1013.44 5117192 27 20053 -66
21/02/2024 09:43:53 10.75 5.63 14.62 47.69 1013.22 5117373 27 20259 -67
21/02/2024 09:41:26 11.77 5.22 14.61 48.66 1013.15 5117091 27 20047 -66
21/02/2024 09:38:57 15.23 6.03 14.64 48.75 1013.15 5116307 27 20046 -67
21/02/2024 09:36:31 11.98 5.53 14.61 48.75 1013.37 5117190 27 20047 -66
21/02/2024 09:34:05 15.85 6.25 14.46 49.55 1013.12 5118589 27 20044 -66
21/02/2024 09:31:36 16.73 6.30 14.37 49.53 1013.13 5117208 27 20050 -66
21/02/2024 09:29:10 17.17 7.32 14.33 49.41 1013.17 5118115 27 20047 -65
21/02/2024 09:26:44 19.10 7.18 14.44 49.05 1013.45 5117255 27 20513 -66
21/02/2024 09:24:16 16.70 6.63 14.32 48.51 1013.20 5118311 27 20044 -66
21/02/2024 09:21:50 18.27 6.97 14.21 48.76 1013.20 5118939 27 20065 -66
21/02/2024 09:19:25 15.05 7.57 14.00 49.63 1013.26 5117143 27 20122 -66
21/02/2024 09:16:59 16.67 7.22 14.11 49.15 1013.45 5117478 27 20516 -66
21/02/2024 09:14:33 16.58 7.78 14.28 47.98 1013.45 5117386 27 20051 -67
21/02/2024 09:12:07 19.40 7.13 14.19 48.53 1013.14 5117730 27 20513 -67
21/02/2024 09:09:41 15.55 6.40 14.17 48.08 1013.15 5117647 27 20047 -66
21/02/2024 09:07:16 15.73 6.57 14.18 48.81 1013.34 5117381 27 20046 -66
21/02/2024 09:04:50 18.40 6.00 14.30 48.13 1013.37 5117889 27 20047 -66
21/02/2024 09:02:25 17.45 5.90 14.03 49.01 1013.13 5118207 27 20039 -66
21/02/2024 08:59:59 13.73 5.93 13.90 49.96 1013.15 5117933 27 20050 -66
21/02/2024 08:57:33 11.73 5.97 13.85 49.04 1013.33 5116952 27 20073 -67
21/02/2024 08:55:07 12.25 5.25 13.70 49.49 1013.37 5116714 27 20048 -66
21/02/2024 08:52:41 11.90 5.28 13.42 50.42 1013.17 5116851 27 20617 -66
21/02/2024 08:50:15 12.23 4.65 13.40 49.73 1013.40 5118178 27 20047 -66
21/02/2024 08:47:49 10.40 4.55 13.04 49.94 1012.97 5117947 27 20045 -66
21/02/2024 08:45:23 11.27 5.18 12.99 49.47 1012.97 5117342 27 20558 -66
21/02/2024 08:42:56 11.63 4.57 13.17 49.87 1013.33 5116874 27 20043 -67
21/02/2024 08:40:31 14.38 5.30 13.11 50.30 1013.29 5119374 27 20047 -66
21/02/2024 08:38:05 12.90 5.95 12.77 51.62 1012.99 5117517 27 20108 -66
21/02/2024 08:35:37 10.98 5.32 12.68 52.17 1013.19 5117794 27 20484 -65
21/02/2024 08:33:09 13.25 5.65 12.34 51.66 1013.02 5118497 27 20074 -66
21/02/2024 08:30:43 14.80 5.63 12.13 51.82 1013.00 5118153 27 20057 -66
21/02/2024 08:28:17 16.10 6.43 12.10 52.25 1013.22 5118264 27 20047 -65
21/02/2024 08:25:50 15.00 5.90 11.99 52.62 1013.24 5118881 27 20040 -66
21/02/2024 08:23:25 13.93 6.10 11.87 52.64 1013.18 5118831 27 20078 -67
21/02/2024 08:20:59 11.77 5.05 11.67 53.64 1013.24 5118506 27 20043 -66
21/02/2024 08:18:33 11.85 5.70 11.40 53.79 1013.00 5118492 27 20046 -66
21/02/2024 08:16:08 15.38 6.38 11.31 53.81 1012.97 5118384 27 20131 -66
21/02/2024 08:13:41 14.32 7.03 11.26 54.21 1013.06 5119053 27 20054 -66
21/02/2024 08:11:15 17.85 8.48 11.05 54.15 1012.88 5118047 27 20047 -65
21/02/2024 08:08:49 15.05 5.38 10.98 55.22 1013.05 5119921 27 20096 -66
21/02/2024 08:06:23 12.52 5.75 10.76 55.31 1013.04 5118163 27 20050 -66
21/02/2024 08:03:58 11.57 5.45 10.61 56.67 1013.08 5118257 27 20048 -66
21/02/2024 08:01:32 13.73 5.38 10.41 56.95 1013.09 5119351 27 20043 -66
21/02/2024 07:59:03 10.32 4.50 10.20 57.24 1013.00 5118342 27 20077 -65
21/02/2024 07:56:36 8.73 3.80 10.18 57.01 1013.17 5118184 27 20043 -66
21/02/2024 07:54:09 8.73 3.83 9.97 57.03 1012.88 5119332 27 20059 -67
21/02/2024 07:51:43 8.07 3.45 9.97 57.30 1012.90 5118454 27 20475 -67
21/02/2024 07:49:16 7.28 3.15 9.93 58.25 1012.83 5116815 27 20043 -65
21/02/2024 07:46:47 8.07 2.80 9.86 58.04 1012.90 5117883 27 20137 -66
21/02/2024 07:44:21 7.93 3.00 9.64 58.49 1012.74 5116508 27 20043 -66
21/02/2024 07:41:54 8.35 3.15 9.69 58.59 1013.09 5114294 28 20059 -67
21/02/2024 07:39:29 8.15 3.08 9.48 57.71 1012.70 5114445 28 20072 -66
21/02/2024 07:37:01 7.63 3.17 9.56 58.14 1012.78 5114699 28 20047 -67
21/02/2024 07:34:34 8.38 3.10 9.66 58.14 1012.79 5115352 28 20050 -67
21/02/2024 07:32:08 9.80 3.00 9.70 58.11 1012.86 5115456 28 20047 -67
21/02/2024 07:29:42 9.10 3.20 9.52 58.03 1012.45 5115626 28 20092 -67
21/02/2024 07:27:17 10.18 3.83 9.52 58.24 1012.50 5116895 28 20122 -66
21/02/2024 07:24:51 10.82 3.40 9.63 58.21 1012.74 5116277 28 20047 -66
21/02/2024 07:22:25 7.82 2.88 9.53 59.11 1012.73 5115714 28 20482 -65
21/02/2024 07:19:59 6.85 2.70 9.33 60.27 1012.66 5116753 28 20466 -66
21/02/2024 07:17:34 8.20 3.63 9.02 59.52 1012.40 5116650 28 20047 -66
21/02/2024 07:15:08 11.13 3.67 9.08 60.61 1012.71 5116243 28 20494 -66
21/02/2024 07:12:42 9.38 3.30 8.91 61.44 1012.80 5115039 27 20654 -66
21/02/2024 07:10:16 8.38 3.10 8.60 62.39 1012.45 5115085 27 20047 -66
21/02/2024 07:07:50 7.25 3.05 8.40 62.79 1012.41 5115952 27 20043 -66
21/02/2024 07:05:25 6.70 2.45 8.44 62.43 1012.63 5115130 27 20512 -66
21/02/2024 07:02:59 5.50 2.40 8.13 62.80 1012.10 5115742 27 20095 -66
21/02/2024 07:00:32 7.10 2.33 8.50 62.84 1012.73 5115126 27 20047 -66
21/02/2024 06:58:06 6.15 2.70 8.48 61.69 1012.69 5114482 27 20055 -66
21/02/2024 06:55:40 6.93 2.55 8.47 62.25 1012.68 5115099 27 20130 -66
21/02/2024 06:53:14 6.38 2.40 8.30 61.61 1012.39 5114313 27 20047 -67
21/02/2024 06:50:48 8.00 2.55 8.28 62.77 1012.36 5114380 27 20054 -65
21/02/2024 06:48:22 6.50 2.40 8.39 62.77 1012.65 5115098 27 20049 -67
21/02/2024 06:45:56 7.00 2.72 8.24 62.59 1012.33 5113922 27 20047 -67
21/02/2024 06:43:30 6.90 2.65 8.42 62.00 1012.59 5114997 27 20043 -66
21/02/2024 06:41:04 5.30 2.22 8.28 62.75 1012.39 5114809 27 20409 -65
21/02/2024 06:38:38 7.25 2.60 8.35 62.79 1012.53 5115221 27 20059 -66
21/02/2024 06:36:12 5.25 2.05 8.43 61.63 1012.67 5115121 27 20504 -66
21/02/2024 06:33:46 10.13 2.63 8.28 62.04 1012.33 5114138 27 20165 -65
21/02/2024 06:31:17 6.00 2.20 8.46 62.07 1012.61 5114855 27 20047 -67
21/02/2024 06:28:50 6.72 2.55 8.48 62.14 1012.61 5115373 27 20050 -67
21/02/2024 06:26:24 5.93 2.40 8.37 62.07 1012.38 5113643 27 20138 -67
21/02/2024 06:23:54 6.90 2.10 8.44 61.73 1012.60 5115157 27 20128 -66
21/02/2024 06:21:28 7.22 2.63 8.45 62.17 1012.55 5115665 27 20044 -66
21/02/2024 06:18:57 6.25 2.53 8.23 62.29 1012.18 5115635 27 20130 -66
21/02/2024 06:16:31 8.20 2.80 8.29 62.88 1012.38 5112846 27 20401 -65
21/02/2024 06:14:04 6.68 2.70 8.33 63.45 1012.50 5116537 27 20104 -66
21/02/2024 06:11:38 6.28 2.50 8.32 63.26 1012.43 5114692 27 20055 -67
21/02/2024 06:09:12 7.95 2.90 8.29 62.80 1012.44 5115947 27 20066 -67
21/02/2024 06:06:47 6.97 2.63 8.28 63.51 1012.44 5117062 27 20591 -66
21/02/2024 06:04:21 7.53 2.90 8.15 62.90 1012.25 5115470 27 20047 -66
21/02/2024 06:01:55 6.22 2.72 8.19 62.73 1012.30 5116497 27 20565 -67
21/02/2024 05:59:29 6.72 3.15 8.16 63.33 1012.26 5115765 27 20276 -67
21/02/2024 05:57:03 6.40 2.72 8.41 63.68 1012.58 5115237 27 20402 -67
21/02/2024 05:54:37 9.90 3.00 8.23 62.85 1012.22 5115104 27 20125 -67
21/02/2024 05:52:12 7.85 2.90 8.33 62.82 1012.31 5115613 27 20063 -67
21/02/2024 05:49:46 7.43 3.13 8.45 62.43 1012.38 5116184 27 20039 -65
21/02/2024 05:47:19 6.47 2.83 8.45 63.57 1012.49 5117123 27 20043 -67
21/02/2024 05:44:53 6.03 2.63 8.43 62.83 1012.54 5116033 27 20055 -67
21/02/2024 05:42:27 7.13 2.88 8.44 63.40 1012.49 5116140 27 20050 -67
21/02/2024 05:40:02 6.22 3.03 8.21 63.17 1012.08 5115882 27 20050 -66
21/02/2024 05:37:36 6.70 3.03 8.41 62.43 1012.47 5115659 27 20169 -66
21/02/2024 05:35:10 6.70 3.00 8.23 62.84 1012.07 5116190 27 20401 -66
21/02/2024 05:32:45 9.00 2.90 8.39 62.95 1012.31 5117923 27 20501 -66
21/02/2024 05:30:19 7.70 2.83 8.32 62.44 1012.14 5117756 27 20054 -67
21/02/2024 05:27:54 7.10 3.17 8.29 62.18 1012.10 5117169 27 20051 -66
21/02/2024 05:25:28 6.63 3.15 8.47 62.68 1012.40 5115593 27 20048 -67
21/02/2024 05:23:01 7.13 3.17 8.29 62.43 1012.01 5116984 27 20050 -67
21/02/2024 05:20:35 6.47 3.00 8.37 62.80 1012.04 5115058 27 20874 -65
21/02/2024 05:18:09 6.57 3.00 8.61 62.13 1012.42 5117646 27 20382 -65
21/02/2024 05:15:43 7.22 3.30 8.38 61.32 1011.92 5118320 27 20382 -67
21/02/2024 05:13:18 8.80 3.97 8.53 61.98 1012.15 5117525 27 20047 -66
21/02/2024 05:10:52 9.20 3.75 8.75 62.21 1012.40 5083255 27 20050 -66
21/02/2024 05:08:26 7.20 2.92 8.77 61.21 1012.35 5116809 27 20193 -66
21/02/2024 05:06:00 8.73 3.70 8.75 61.38 1012.32 5116881 27 20133 -65
21/02/2024 05:03:35 6.60 3.17 8.69 61.77 1012.33 5116930 27 20064 -67
21/02/2024 05:01:09 7.72 3.65 8.64 61.97 1012.28 5116838 27 20078 -66
21/02/2024 04:58:43 6.90 3.78 8.68 61.96 1012.23 5117898 27 20050 -67
21/02/2024 04:56:18 11.60 4.00 8.64 61.97 1012.08 5116961 27 20051 -67
21/02/2024 04:53:52 12.05 4.40 8.75 62.31 1012.29 5117679 27 20047 -65
21/02/2024 04:51:25 9.65 4.28 8.70 62.87 1012.16 5117663 27 20059 -66
21/02/2024 04:48:59 9.02 4.60 8.57 62.32 1011.96 5118381 27 20039 -66
21/02/2024 04:46:33 9.27 3.83 8.68 62.45 1012.11 5116998 27 20039 -66
21/02/2024 04:44:07 7.97 4.07 8.80 61.96 1012.24 5116455 27 20223 -66
21/02/2024 04:41:42 8.73 4.05 8.60 61.83 1011.98 5117673 27 20512 -66
21/02/2024 04:39:16 8.18 3.95 8.60 61.79 1011.90 5116376 27 20074 -65
21/02/2024 04:36:50 10.55 4.45 8.78 61.72 1012.27 5116830 27 20086 -66
21/02/2024 04:34:25 9.35 4.20 8.55 62.47 1011.93 5117089 27 20050 -66
21/02/2024 04:31:59 8.90 4.43 8.77 62.28 1012.24 5117466 27 20047 -66
21/02/2024 04:29:34 8.13 3.92 8.58 63.10 1011.89 5118633 27 20050 -66
21/02/2024 04:27:08 9.48 4.22 8.58 62.60 1011.86 5116744 27 20043 -66
21/02/2024 04:24:42 8.77 4.53 8.73 62.08 1012.13 5118824 27 20118 -66
21/02/2024 04:22:16 8.40 4.45 8.61 62.39 1011.95 5117417 27 20220 -66
21/02/2024 04:19:49 10.20 4.68 8.76 62.57 1012.15 5117174 27 20051 -66
21/02/2024 04:17:22 7.93 3.70 8.63 61.84 1011.95 5118047 27 20073 -66
21/02/2024 04:14:56 9.30 4.45 8.51 62.39 1011.88 5117874 27 20725 -66
21/02/2024 04:12:30 9.45 4.30 8.64 62.63 1012.07 5117530 27 20096 -66
21/02/2024 04:10:05 9.05 4.60 8.68 63.77 1012.11 5116213 27 20210 -67
21/02/2024 04:07:39 11.25 4.38 8.45 62.31 1011.81 5112453 28 20221 -66
21/02/2024 04:05:13 10.13 5.00 8.57 62.85 1012.00 5113109 28 20051 -67
21/02/2024 04:02:37 10.18 5.10 8.40 62.84 1011.75 5114398 28 20349 -66
21/02/2024 04:00:10 10.63 5.25 8.48 63.49 1011.80 5114454 28 20055 -66
21/02/2024 03:57:42 10.63 5.38 8.37 62.91 1011.60 5114867 28 20058 -66
21/02/2024 03:55:16 11.60 5.68 8.66 63.47 1012.08 5115334 28 20044 -66
21/02/2024 03:52:50 10.45 5.30 8.50 64.25 1011.79 5113951 28 20054 -67
21/02/2024 03:50:24 11.73 5.68 8.43 63.10 1011.51 5114818 28 20096 -66
21/02/2024 03:47:58 12.27 5.93 8.50 63.39 1011.52 5114046 28 20043 -66
21/02/2024 03:45:32 11.90 5.28 8.56 63.41 1011.55 5114136 28 20100 -65
21/02/2024 03:43:06 10.38 5.30 8.60 63.43 1011.48 5114958 28 20540 -66
21/02/2024 03:40:40 11.93 6.32 8.84 62.47 1011.83 5113937 28 20537 -67
21/02/2024 03:38:13 11.50 5.60 8.74 62.18 1011.57 5115411 28 20100 -66
21/02/2024 03:35:46 10.25 5.50 8.80 62.72 1011.58 5114760 28 20067 -66
21/02/2024 03:33:20 10.02 5.00 8.96 62.46 1011.83 5113094 28 20623 -66
21/02/2024 03:30:51 11.13 5.20 9.09 62.53 1011.84 5114877 28 20405 -67
21/02/2024 03:28:25 14.13 6.38 8.96 62.73 1011.46 5116650 28 20043 -66
21/02/2024 03:25:59 11.35 5.53 9.28 61.64 1011.80 5114069 28 20047 -67
21/02/2024 03:23:33 12.05 5.88 9.18 62.10 1011.51 5114805 28 20048 -66
21/02/2024 03:20:47 11.93 6.10 9.39 62.29 1011.66 5115335 28 20379 -66
21/02/2024 03:18:17 12.18 6.47 9.56 62.70 1011.74 5114123 28 20047 -66
21/02/2024 03:15:51 13.98 7.22 9.50 62.51 1011.56 5115185 28 20047 -66
21/02/2024 03:13:25 13.18 7.20 9.70 61.92 1011.76 5114097 28 20153 -67
21/02/2024 03:10:59 15.93 7.03 9.57 61.72 1011.38 5113895 27 20589 -66
21/02/2024 03:08:33 12.60 7.22 9.88 61.39 1011.75 5114464 28 20062 -66
21/02/2024 03:06:06 13.48 7.35 9.78 61.51 1011.53 5113540 27 20485 -67
21/02/2024 03:03:38 16.05 8.05 10.10 61.00 1011.73 5112721 27 20459 -66
21/02/2024 03:01:12 15.35 7.97 10.00 60.18 1011.40 5116330 27 20043 -66
21/02/2024 02:58:46 16.30 8.45 10.32 60.67 1011.73 5113923 27 20468 -66
21/02/2024 02:56:19 13.02 7.22 10.49 59.85 1011.88 5114347 27 20538 -67
21/02/2024 02:53:53 12.93 6.60 10.47 59.53 1011.63 5114700 27 20046 -66
21/02/2024 02:51:25 15.15 6.45 10.56 58.88 1011.68 5114545 27 20083 -67
21/02/2024 02:48:59 15.35 7.40 10.70 58.79 1011.63 5114769 27 20050 -66
21/02/2024 02:46:33 14.63 7.13 10.80 58.08 1011.47 5114279 27 20078 -66
21/02/2024 02:44:07 12.32 6.63 10.92 57.20 1011.42 5115212 27 20039 -66
21/02/2024 02:41:41 11.73 6.03 11.22 57.00 1011.68 5114872 27 20047 -65
21/02/2024 02:39:16 9.75 5.07 11.17 57.29 1011.66 5115297 27 20048 -66
21/02/2024 02:36:50 8.68 3.97 11.04 56.53 1011.44 5114939 27 20066 -66
21/02/2024 02:34:24 9.27 4.95 11.04 56.26 1011.49 5114355 27 20112 -66
21/02/2024 02:31:59 8.23 3.95 10.97 56.79 1011.51 5114511 27 20463 -66
21/02/2024 02:29:33 8.82 4.45 11.08 56.71 1011.82 5114555 27 20423 -66
21/02/2024 02:27:07 9.05 4.20 10.81 57.08 1011.46 5115060 27 20525 -66
21/02/2024 02:24:42 9.00 3.78 10.68 57.22 1011.59 5115181 27 20160 -66
21/02/2024 02:22:16 10.02 4.90 10.76 57.30 1011.80 5115066 27 20443 -66
21/02/2024 02:19:49 11.02 5.28 10.71 57.24 1011.58 5115115 27 20466 -66
21/02/2024 02:17:24 11.35 6.00 10.93 56.90 1011.73 5114487 27 20052 -66
21/02/2024 02:14:58 10.20 4.57 11.04 56.51 1011.70 5114622 27 20486 -66
21/02/2024 02:12:32 11.00 5.22 11.27 55.28 1011.88 5114925 27 20046 -65
21/02/2024 02:10:07 7.88 3.67 11.20 54.90 1011.57 5114636 27 20140 -66
21/02/2024 02:07:41 7.22 2.60 11.26 54.59 1011.60 5116269 27 20055 -66
21/02/2024 02:05:15 6.03 2.40 11.29 53.65 1011.59 5115568 27 20055 -65
21/02/2024 02:02:49 6.70 2.20 11.32 53.33 1011.59 5116611 27 20183 -66
21/02/2024 02:00:24 6.43 2.28 11.29 53.62 1011.58 5117901 27 20040 -66
21/02/2024 01:57:58 6.57 2.10 11.38 53.70 1011.63 5116365 27 20116 -65
21/02/2024 01:55:32 7.40 2.17 11.37 53.36 1011.62 5115374 27 20093 -66
21/02/2024 01:53:07 6.75 2.60 11.53 53.33 1011.84 5115738 27 20059 -67
21/02/2024 01:50:41 5.28 2.20 11.59 53.59 1011.92 5115791 27 20043 -67
21/02/2024 01:48:15 5.75 2.28 11.61 53.03 1011.81 5115981 27 20054 -66
21/02/2024 01:45:50 7.03 2.35 11.55 53.45 1011.79 5117425 27 20133 -67
21/02/2024 01:43:23 6.25 2.28 11.34 53.57 1011.56 5115404 27 20051 -66
21/02/2024 01:40:56 7.40 2.22 11.27 53.12 1011.55 5115920 27 20069 -67
21/02/2024 01:38:31 4.95 1.92 11.41 53.90 1011.80 5115815 27 20048 -67
21/02/2024 01:36:05 6.43 2.45 11.47 54.19 1011.84 5115417 27 20055 -67
21/02/2024 01:33:39 6.32 2.40 11.29 54.09 1011.54 5116661 27 20069 -67
21/02/2024 01:31:14 6.57 2.63 11.43 54.41 1011.77 5116740 27 20136 -67
21/02/2024 01:28:48 6.43 2.53 11.47 54.03 1011.73 5116900 27 20043 -66
21/02/2024 01:26:22 5.82 2.30 11.47 53.88 1011.73 5117459 27 20099 -66
21/02/2024 01:23:56 7.13 2.63 11.50 54.33 1011.78 5116372 27 20054 -67
21/02/2024 01:21:31 6.22 2.63 11.39 54.39 1011.50 5116140 27 20054 -66
21/02/2024 01:19:05 6.97 3.33 11.19 54.70 1011.26 5117400 27 20052 -67
21/02/2024 01:16:39 8.73 3.65 11.42 55.79 1011.81 5116456 27 20055 -67
21/02/2024 01:14:14 9.55 3.55 11.15 56.79 1011.48 5116436 27 20051 -66
21/02/2024 01:11:48 7.85 3.50 11.26 57.59 1011.80 5117528 27 20043 -67
21/02/2024 01:09:23 9.45 4.60 11.03 58.86 1011.42 5116154 27 20405 -67
21/02/2024 01:06:57 9.38 4.60 11.19 59.71 1011.74 5115326 27 20047 -67
21/02/2024 01:04:31 10.88 5.10 11.28 59.88 1011.75 5116887 27 20473 -66
21/02/2024 01:02:06 12.88 5.63 11.11 59.88 1011.56 5098245 27 20039 -67
21/02/2024 00:59:40 12.38 5.65 11.30 60.59 1011.79 5117359 27 20520 -67
21/02/2024 00:57:14 11.50 5.60 11.12 60.23 1011.44 5116213 27 20054 -66
21/02/2024 00:54:49 12.18 5.78 11.20 60.90 1011.65 5117753 27 20654 -67
21/02/2024 00:52:23 11.13 5.47 11.33 60.94 1011.78 5116923 27 20070 -66
21/02/2024 00:49:58 13.82 5.93 11.18 61.36 1011.44 5116329 27 20058 -67
21/02/2024 00:47:32 12.88 6.18 11.30 61.56 1011.64 5115747 27 20044 -66
21/02/2024 00:45:06 12.73 6.03 11.44 62.09 1011.90 5117344 27 20047 -67
21/02/2024 00:42:40 14.15 6.63 11.38 62.80 1011.74 5117169 27 20089 -67
21/02/2024 00:40:14 13.30 6.20 11.19 63.49 1011.47 5117914 27 20039 -67
21/02/2024 00:37:48 16.98 8.80 11.23 65.03 1011.55 5117678 27 20088 -66
21/02/2024 00:35:18 12.82 6.15 11.26 65.67 1011.60 5116462 27 20431 -66
21/02/2024 00:32:52 20.50 7.80 11.22 66.80 1011.79 5119607 27 20371 -68
21/02/2024 00:30:26 14.55 6.85 10.89 68.69 1011.48 5118357 27 20371 -66
21/02/2024 00:28:01 17.77 9.60 10.85 69.98 1011.59 5118367 27 20051 -67
21/02/2024 00:25:35 20.70 10.45 10.95 70.17 1011.87 5117954 27 20054 -67
21/02/2024 00:23:09 21.27 10.10 10.62 69.92 1011.59 5116518 27 20067 -68
21/02/2024 00:20:44 23.10 11.20 10.69 69.55 1011.84 5116540 27 20137 -66
21/02/2024 00:18:17 22.10 11.65 10.61 69.31 1011.93 5118685 27 20142 -67
21/02/2024 00:15:51 23.25 11.63 10.40 68.90 1011.62 5119217 27 20134 -67
21/02/2024 00:13:26 22.60 11.73 10.38 68.14 1011.59 5119119 27 20075 -66
21/02/2024 00:11:00 23.83 12.40 10.59 68.03 1012.03 5118951 27 20100 -66
21/02/2024 00:08:32 23.77 11.93 10.59 68.13 1011.87 5116780 27 20321 -67
21/02/2024 00:06:06 21.20 12.32 10.43 67.55 1011.60 5117676 27 20406 -66
21/02/2024 00:03:41 24.10 11.85 10.49 67.43 1011.67 5118151 27 20089 -67
21/02/2024 00:01:15 23.92 12.40 10.59 67.75 1011.83 5116797 27 20047 -67
Time SDS_P1 SDS_P2 BME280_temperature BME280_humidity BME280_pressure Samples Min_cycle Max_cycle Signal